createdAt,value
2023-04-09T00:01:22.569Z,101108.63
2023-04-09T00:03:51.554Z,101117.96
2023-04-09T00:06:20.043Z,101111.50
2023-04-09T00:08:48.528Z,101108.11
2023-04-09T00:11:21.935Z,101110.39
2023-04-09T00:13:52.553Z,101114.09
2023-04-09T00:16:20.964Z,101112.49
2023-04-09T00:18:49.572Z,101112.02
2023-04-09T00:21:18.303Z,101110.80
2023-04-09T00:23:46.690Z,101108.88
2023-04-09T00:26:15.076Z,101107.66
2023-04-09T00:28:43.437Z,101107.13
2023-04-09T00:31:12.374Z,101108.19
2023-04-09T00:33:41.522Z,101104.12
2023-04-09T00:36:12.996Z,101104.14
2023-04-09T00:38:41.690Z,101095.87
2023-04-09T00:41:13.523Z,101095.19
2023-04-09T00:43:42.307Z,101095.20
2023-04-09T00:46:11.115Z,101097.50
2023-04-09T00:48:40.087Z,101103.48
2023-04-09T00:51:08.583Z,101107.15
2023-04-09T00:53:37.563Z,101108.48
2023-04-09T00:56:06.767Z,101108.76
2023-04-09T00:58:40.984Z,101103.27
2023-04-09T01:01:09.407Z,101109.42
2023-04-09T01:03:39.349Z,101107.84
2023-04-09T01:06:23.932Z,101107.14
2023-04-09T01:08:57.322Z,101110.31
2023-04-09T01:11:39.313Z,101106.80
2023-04-09T01:14:28.937Z,101108.90
2023-04-09T01:16:58.035Z,101107.14
2023-04-09T01:19:26.464Z,101106.62
2023-04-09T01:21:54.742Z,101111.19
2023-04-09T01:24:35.510Z,101111.69
2023-04-09T01:27:05.120Z,101108.33
2023-04-09T01:29:40.056Z,101114.00
2023-04-09T01:32:08.326Z,101114.18
2023-04-09T01:34:39.197Z,101113.80
2023-04-09T01:37:07.535Z,101114.98
2023-04-09T01:39:37.065Z,101115.10
2023-04-09T01:42:05.915Z,101115.57
2023-04-09T01:44:34.109Z,101112.20
2023-04-09T01:47:02.485Z,101113.59
2023-04-09T01:49:31.273Z,101111.78
2023-04-09T01:52:00.060Z,101113.52
2023-04-09T01:54:28.758Z,101113.75
2023-04-09T01:56:57.578Z,101113.27
2023-04-09T01:59:28.882Z,101110.27
2023-04-09T02:02:02.002Z,101108.34
2023-04-09T02:04:34.366Z,101109.75
2023-04-09T02:07:07.285Z,101108.15
2023-04-09T02:09:36.864Z,101107.09
2023-04-09T02:12:06.235Z,101106.27
2023-04-09T02:14:35.950Z,101104.73
2023-04-09T02:17:05.679Z,101108.64
2023-04-09T02:19:41.113Z,101110.94
2023-04-09T02:22:17.286Z,101104.07
2023-04-09T02:24:46.465Z,101102.27
2023-04-09T02:27:14.952Z,101101.75
2023-04-09T02:29:43.624Z,101098.41
2023-04-09T02:32:13.542Z,101105.09
2023-04-09T02:34:43.966Z,101111.78
2023-04-09T02:37:12.551Z,101115.48
2023-04-09T02:39:41.348Z,101113.73
2023-04-09T02:42:09.835Z,101112.33
2023-04-09T02:44:38.195Z,101118.02
2023-04-09T02:47:09.549Z,101118.58
2023-04-09T02:49:39.460Z,101122.48
2023-04-09T02:52:07.847Z,101121.95
2023-04-09T02:54:36.112Z,101129.29
2023-04-09T02:57:05.927Z,101130.85
2023-04-09T02:59:36.080Z,101134.42
2023-04-09T03:02:04.424Z,101141.50
2023-04-09T03:04:33.420Z,101140.94
2023-04-09T03:07:01.902Z,101140.35
2023-04-09T03:09:37.958Z,101141.15
2023-04-09T03:12:06.856Z,101142.52
2023-04-09T03:14:35.446Z,101143.88
2023-04-09T03:17:04.135Z,101150.17
2023-04-09T03:19:32.807Z,101146.49
2023-04-09T03:22:02.214Z,101150.59
2023-04-09T03:24:33.567Z,101152.05
2023-04-09T03:27:04.395Z,101157.77
2023-04-09T03:29:33.097Z,101159.05
2023-04-09T03:32:01.760Z,101161.47
2023-04-09T03:34:30.452Z,101161.98
2023-04-09T03:36:58.861Z,101160.89
2023-04-09T03:39:31.529Z,101163.55
2023-04-09T03:42:07.566Z,101160.20
2023-04-09T03:44:44.657Z,101165.98
2023-04-09T03:47:17.230Z,101163.27
2023-04-09T03:49:46.530Z,101166.59
2023-04-09T03:52:24.738Z,101167.31
2023-04-09T03:55:11.562Z,101164.14
2023-04-09T03:57:40.018Z,101163.25
2023-04-09T04:00:13.533Z,101169.57
2023-04-09T04:03:11.916Z,101170.06
2023-04-09T04:06:03.731Z,101172.02
2023-04-09T04:08:39.596Z,101171.31
2023-04-09T04:11:08.686Z,101167.66
2023-04-09T04:13:37.713Z,101170.48
2023-04-09T04:16:09.548Z,101174.30
2023-04-09T04:18:38.852Z,101177.08
2023-04-09T04:21:15.354Z,101183.05
2023-04-09T04:23:54.128Z,101180.95
2023-04-09T04:26:30.691Z,101180.83
2023-04-09T04:29:01.125Z,101181.58
2023-04-09T04:31:52.669Z,101188.99
2023-04-09T04:34:22.805Z,101189.23
2023-04-09T04:36:58.521Z,101191.60
2023-04-09T04:39:31.612Z,101186.95
2023-04-09T04:42:07.454Z,101187.67
2023-04-09T04:44:37.980Z,101192.66
2023-04-09T04:47:33.240Z,101192.33
2023-04-09T04:50:02.655Z,101197.28
2023-04-09T04:52:41.008Z,101199.95
2023-04-09T04:55:10.107Z,101206.38
2023-04-09T04:57:38.923Z,101206.30
2023-04-09T05:00:09.748Z,101213.60
2023-04-09T05:02:39.133Z,101212.41
2023-04-09T05:05:21.281Z,101215.31
2023-04-09T05:07:53.541Z,101211.28
2023-04-09T05:10:23.213Z,101218.58
2023-04-09T05:12:52.097Z,101220.39
2023-04-09T05:15:26.631Z,101219.70
2023-04-09T05:17:54.981Z,101220.05
2023-04-09T05:20:23.887Z,101222.69
2023-04-09T05:23:06.512Z,101221.10
2023-04-09T05:25:41.542Z,101220.61
2023-04-09T05:28:18.035Z,101225.55
2023-04-09T05:30:47.449Z,101231.42
2023-04-09T05:33:16.192Z,101233.03
2023-04-09T05:35:45.345Z,101235.86
2023-04-09T05:38:16.668Z,101236.40
2023-04-09T05:40:46.075Z,101233.76
2023-04-09T05:43:14.650Z,101238.71
2023-04-09T05:45:46.216Z,101239.42
2023-04-09T05:48:17.426Z,101243.48
2023-04-09T05:50:54.475Z,101243.48
2023-04-09T05:53:25.959Z,101249.34
2023-04-09T05:55:54.844Z,101251.46
2023-04-09T05:58:25.677Z,101248.80
2023-04-09T06:00:57.957Z,101258.14
2023-04-09T06:03:27.049Z,101260.43
2023-04-09T06:05:57.472Z,101256.55
2023-04-09T06:08:28.007Z,101259.56
2023-04-09T06:10:57.099Z,101261.81
2023-04-09T06:13:25.474Z,101272.77
2023-04-09T06:15:54.299Z,101269.58
2023-04-09T06:18:24.388Z,101271.48
2023-04-09T06:21:01.793Z,101272.33
2023-04-09T06:23:32.508Z,101274.80
2023-04-09T06:26:01.493Z,101272.48
2023-04-09T06:28:31.940Z,101276.89
2023-04-09T06:31:00.565Z,101276.35
2023-04-09T06:33:29.021Z,101281.12
2023-04-09T06:35:57.503Z,101282.36
2023-04-09T06:38:26.185Z,101282.73
2023-04-09T06:40:56.065Z,101280.27
2023-04-09T06:43:26.900Z,101286.46
2023-04-09T06:45:56.108Z,101283.31
2023-04-09T06:48:24.403Z,101286.19
2023-04-09T06:50:55.221Z,101291.36
2023-04-09T06:53:25.033Z,101292.27
2023-04-09T06:55:54.461Z,101295.46
2023-04-09T06:58:28.078Z,101301.16
2023-04-09T07:00:58.144Z,101302.79
2023-04-09T07:03:31.150Z,101302.95
2023-04-09T07:06:00.331Z,101301.38
2023-04-09T07:08:29.237Z,101300.34
2023-04-09T07:10:59.645Z,101304.96
2023-04-09T07:16:01.758Z,101309.09
2023-04-09T07:18:31.847Z,101304.17
2023-04-09T07:21:01.249Z,101310.57
2023-04-09T07:23:29.947Z,101312.73
2023-04-09T07:25:58.519Z,101312.95
2023-04-09T07:28:27.469Z,101312.44
2023-04-09T07:30:55.786Z,101309.45
2023-04-09T07:33:44.082Z,101306.82
2023-04-09T07:36:12.928Z,101306.90
2023-04-09T07:38:41.703Z,101308.71
2023-04-09T07:41:11.830Z,101309.45
2023-04-09T07:43:40.922Z,101311.05
2023-04-09T07:46:09.823Z,101309.48
2023-04-09T07:48:38.602Z,101308.77
2023-04-09T07:51:06.984Z,101308.98
2023-04-09T07:53:37.439Z,101309.02
2023-04-09T07:56:07.019Z,101308.15
2023-04-09T07:58:36.621Z,101307.29
2023-04-09T08:01:07.259Z,101311.21
2023-04-09T08:03:37.237Z,101307.00
2023-04-09T08:06:06.012Z,101309.86
2023-04-09T08:08:35.362Z,101307.91
2023-04-09T08:11:04.978Z,101303.67
2023-04-09T08:13:33.552Z,101303.87
2023-04-09T08:16:04.137Z,101300.36
2023-04-09T08:18:33.070Z,101304.96
2023-04-09T08:21:04.687Z,101312.39
2023-04-09T08:23:36.317Z,101307.24
2023-04-09T08:26:04.759Z,101315.06
2023-04-09T08:28:33.137Z,101310.10
2023-04-09T08:31:02.272Z,101314.02
2023-04-09T08:33:31.226Z,101310.30
2023-04-09T08:36:01.977Z,101312.77
2023-04-09T08:38:32.186Z,101307.63
2023-04-09T08:41:00.789Z,101308.52
2023-04-09T08:43:41.968Z,101308.86
2023-04-09T08:46:18.269Z,101305.67
2023-04-09T08:48:47.108Z,101312.24
2023-04-09T08:51:15.898Z,101314.91
2023-04-09T08:53:48.046Z,101318.08
2023-04-09T08:56:17.046Z,101316.80
2023-04-09T08:58:48.012Z,101322.11
2023-04-09T09:01:26.313Z,101326.86
2023-04-09T09:03:55.818Z,101327.91
2023-04-09T09:06:27.334Z,101322.39
2023-04-09T09:09:16.628Z,101322.17
2023-04-09T09:11:45.914Z,101326.75
2023-04-09T09:14:18.010Z,101331.69
2023-04-09T09:17:03.847Z,101338.56
2023-04-09T09:19:33.942Z,101339.23
2023-04-09T09:22:03.365Z,101340.98
2023-04-09T09:24:34.389Z,101338.80
2023-04-09T09:27:03.072Z,101338.73
2023-04-09T09:29:32.107Z,101338.77
2023-04-09T09:32:01.204Z,101337.28
2023-04-09T09:34:30.516Z,101340.02
2023-04-09T09:36:59.093Z,101339.61
2023-04-09T09:39:29.315Z,101335.69
2023-04-09T09:42:07.122Z,101347.31
2023-04-09T09:44:36.924Z,101349.17
2023-04-09T09:47:05.622Z,101347.52
2023-04-09T09:49:34.604Z,101354.67
2023-04-09T09:52:03.407Z,101349.45
2023-04-09T09:54:33.615Z,101348.63
2023-04-09T09:57:02.533Z,101348.54
2023-04-09T09:59:32.435Z,101351.46
2023-04-09T10:02:04.469Z,101356.34
2023-04-09T10:04:36.913Z,101353.11
2023-04-09T10:07:05.979Z,101355.88
2023-04-09T10:09:36.170Z,101357.25
2023-04-09T10:12:05.206Z,101355.14
2023-04-09T10:14:36.022Z,101359.38
2023-04-09T10:17:04.795Z,101357.98
2023-04-09T10:19:35.733Z,101362.96
2023-04-09T10:22:10.153Z,101364.27
2023-04-09T10:24:38.522Z,101364.25
2023-04-09T10:27:15.955Z,101364.26
2023-04-09T10:29:45.942Z,101365.98
2023-04-09T10:32:21.880Z,101372.64
2023-04-09T10:35:10.228Z,101370.27
2023-04-09T10:37:40.252Z,101367.55
2023-04-09T10:40:19.275Z,101365.91
2023-04-09T10:42:47.757Z,101361.67
2023-04-09T10:45:23.304Z,101362.56
2023-04-09T10:47:53.897Z,101360.27
2023-04-09T10:50:24.045Z,101360.45
2023-04-09T10:53:01.030Z,101357.69
2023-04-09T10:55:34.896Z,101362.15
2023-04-09T10:58:04.549Z,101363.23
2023-04-09T11:00:40.509Z,101359.59
2023-04-09T11:03:27.757Z,101362.82
2023-04-09T11:06:03.595Z,101362.46
2023-04-09T11:08:41.995Z,101358.38
2023-04-09T11:11:16.931Z,101356.77
2023-04-09T11:13:45.920Z,101352.35
2023-04-09T11:16:22.800Z,101354.88
2023-04-09T11:18:56.499Z,101354.73
2023-04-09T11:21:46.892Z,101356.80
2023-04-09T11:24:16.086Z,101353.45
2023-04-09T11:26:46.206Z,101352.39
2023-04-09T11:29:15.412Z,101347.11
2023-04-09T11:31:50.032Z,101348.52
2023-04-09T11:34:38.415Z,101343.55
2023-04-09T11:37:09.448Z,101349.16
2023-04-09T11:39:43.938Z,101341.73
2023-04-09T11:42:15.720Z,101339.08
2023-04-09T11:44:47.047Z,101336.97
2023-04-09T11:47:32.633Z,101339.45
2023-04-09T11:50:03.185Z,101339.64
2023-04-09T11:52:36.959Z,101332.95
2023-04-09T11:55:09.446Z,101330.50
2023-04-09T11:57:50.111Z,101329.80
2023-04-09T12:00:21.252Z,101336.83
2023-04-09T12:03:03.721Z,101334.72
2023-04-09T12:05:51.279Z,101335.09
2023-04-09T12:08:25.189Z,101331.17
2023-04-09T12:10:58.120Z,101328.71
2023-04-09T12:13:44.916Z,101327.17
2023-04-09T12:16:14.675Z,101321.56
2023-04-09T12:19:03.662Z,101329.88
2023-04-09T12:21:56.639Z,101328.48
2023-04-09T12:24:25.810Z,101327.64
2023-04-09T12:26:54.086Z,101326.77
2023-04-09T12:29:22.508Z,101331.20
2023-04-09T12:31:51.405Z,101328.89
2023-04-09T12:34:20.458Z,101328.16
2023-04-09T12:36:55.894Z,101324.89
2023-04-09T12:39:24.272Z,101329.38
2023-04-09T12:41:56.055Z,101329.88
2023-04-09T12:44:33.428Z,101325.98
2023-04-09T12:47:01.879Z,101325.44
2023-04-09T12:49:33.349Z,101325.42
2023-04-09T12:52:01.627Z,101323.30
2023-04-09T12:54:31.751Z,101321.56
2023-04-09T12:57:02.074Z,101315.02
2023-04-09T12:59:32.698Z,101318.20
2023-04-09T13:02:02.378Z,101315.38
2023-04-09T13:04:31.556Z,101315.20
2023-04-09T13:07:03.226Z,101313.38
2023-04-09T13:09:35.532Z,101310.56
2023-04-09T13:12:13.127Z,101307.25
2023-04-09T13:14:43.455Z,101301.83
2023-04-09T13:17:14.458Z,101305.48
2023-04-09T13:19:43.129Z,101302.59
2023-04-09T13:22:12.683Z,101301.23
2023-04-09T13:24:43.581Z,101298.98
2023-04-09T13:27:13.238Z,101300.77
2023-04-09T13:29:45.827Z,101298.50
2023-04-09T13:32:14.645Z,101293.22
2023-04-09T13:34:51.572Z,101290.57
2023-04-09T13:37:20.175Z,101281.90
2023-04-09T13:39:50.072Z,101284.77
2023-04-09T13:42:19.372Z,101284.63
2023-04-09T13:44:50.517Z,101282.03
2023-04-09T13:47:19.096Z,101281.02
2023-04-09T13:49:56.076Z,101280.88
2023-04-09T13:52:26.712Z,101281.98
2023-04-09T13:54:58.361Z,101278.67
2023-04-09T13:57:27.468Z,101276.39
2023-04-09T13:59:56.877Z,101280.63
2023-04-09T14:02:28.347Z,101279.58
2023-04-09T14:04:57.340Z,101284.15
2023-04-09T14:07:26.298Z,101279.20
2023-04-09T14:09:55.075Z,101277.79
2023-04-09T14:12:24.485Z,101277.77
2023-04-09T14:14:53.071Z,101275.98
2023-04-09T14:17:21.965Z,101279.12
2023-04-09T14:19:52.591Z,101280.00
2023-04-09T14:22:23.328Z,101278.59
2023-04-09T14:24:52.844Z,101283.36
2023-04-09T14:27:21.412Z,101277.34
2023-04-09T14:29:57.776Z,101278.92
2023-04-09T14:32:30.155Z,101279.59
2023-04-09T14:34:59.041Z,101282.55
2023-04-09T14:37:32.536Z,101276.37
2023-04-09T14:40:01.816Z,101276.91
2023-04-09T14:42:31.163Z,101277.10
2023-04-09T14:45:04.434Z,101278.87
2023-04-09T14:47:38.313Z,101282.02
2023-04-09T14:50:34.678Z,101287.52
2023-04-09T14:53:10.529Z,101284.34
2023-04-09T14:55:58.871Z,101284.33
2023-04-09T14:58:28.072Z,101280.78
2023-04-09T15:01:04.857Z,101281.30
2023-04-09T15:03:34.396Z,101281.30
2023-04-09T15:06:12.801Z,101278.61
2023-04-09T15:08:41.760Z,101281.58
2023-04-09T15:11:14.889Z,101278.05
2023-04-09T15:13:44.770Z,101280.36
2023-04-09T15:16:23.832Z,101275.79
2023-04-09T15:18:52.969Z,101274.52
2023-04-09T15:21:22.883Z,101278.59
2023-04-09T15:24:00.682Z,101270.30
2023-04-09T15:26:31.548Z,101275.06
2023-04-09T15:29:06.930Z,101270.61
2023-04-09T15:31:41.785Z,101265.81
2023-04-09T15:34:15.009Z,101267.04
2023-04-09T15:36:47.384Z,101262.81
2023-04-09T15:39:16.267Z,101266.84
2023-04-09T15:41:46.692Z,101260.45
2023-04-09T15:44:22.956Z,101266.26
2023-04-09T15:46:52.186Z,101257.22
2023-04-09T15:49:27.797Z,101256.33
2023-04-09T15:52:01.411Z,101255.95
2023-04-09T15:54:30.460Z,101252.75
2023-04-09T15:57:04.819Z,101254.32
2023-04-09T15:59:33.935Z,101256.05
2023-04-09T16:02:05.080Z,101250.75
2023-04-09T16:04:41.852Z,101256.20
2023-04-09T16:07:11.256Z,101250.38
2023-04-09T16:09:40.226Z,101246.82
2023-04-09T16:12:14.153Z,101250.52
2023-04-09T16:14:44.968Z,101243.45
2023-04-09T16:17:20.109Z,101242.41
2023-04-09T16:19:50.333Z,101247.91
2023-04-09T16:22:20.473Z,101244.55
2023-04-09T16:24:49.185Z,101243.61
2023-04-09T16:27:22.965Z,101243.39
2023-04-09T16:29:58.506Z,101246.75
2023-04-09T16:32:33.729Z,101252.80
2023-04-09T16:35:04.869Z,101248.40
2023-04-09T16:37:36.420Z,101251.23
2023-04-09T16:40:06.350Z,101245.76
2023-04-09T16:42:37.167Z,101247.67
2023-04-09T16:45:12.105Z,101246.27
2023-04-09T16:48:00.305Z,101253.30
2023-04-09T16:50:33.545Z,101254.52
2023-04-09T16:53:10.003Z,101258.55
2023-04-09T16:55:45.246Z,101257.30
2023-04-09T16:58:13.737Z,101261.73
2023-04-09T17:00:51.445Z,101264.90
2023-04-09T17:03:22.934Z,101264.36
2023-04-09T17:05:51.874Z,101265.41
2023-04-09T17:08:24.646Z,101266.64
2023-04-09T17:11:02.381Z,101265.39
2023-04-09T17:13:40.447Z,101262.90
2023-04-09T17:16:12.010Z,101266.79
2023-04-09T17:18:52.501Z,101265.90
2023-04-09T17:21:26.782Z,101265.83
2023-04-09T17:24:03.146Z,101268.90
2023-04-09T17:26:34.669Z,101268.76
2023-04-09T17:29:03.280Z,101270.57
2023-04-09T17:31:32.693Z,101271.86
2023-04-09T17:34:20.321Z,101274.67
2023-04-09T17:36:57.135Z,101277.48
2023-04-09T17:39:26.843Z,101274.68
2023-04-09T17:41:58.361Z,101276.11
2023-04-09T17:44:28.892Z,101279.80
2023-04-09T17:47:03.101Z,101278.38
2023-04-09T17:51:15.246Z,101279.23
2023-04-09T17:53:43.693Z,101279.27
2023-04-09T17:56:19.370Z,101281.91
2023-04-09T17:58:58.163Z,101278.91
2023-04-09T18:01:33.003Z,101279.25
2023-04-09T18:04:02.505Z,101280.48
2023-04-09T18:06:39.372Z,101285.64
2023-04-09T18:09:07.960Z,101282.90
2023-04-09T18:11:39.109Z,101282.57
2023-04-09T18:14:11.069Z,101285.57
2023-04-09T18:16:53.470Z,101287.14
2023-04-09T18:19:26.738Z,101287.48
2023-04-09T18:21:59.747Z,101292.25
2023-04-09T18:24:37.087Z,101290.30
2023-04-09T18:27:12.294Z,101288.89
2023-04-09T18:29:48.621Z,101287.30
2023-04-09T18:32:19.809Z,101285.66
2023-04-09T18:34:49.036Z,101290.98
2023-04-09T18:37:19.617Z,101291.40
2023-04-09T18:39:49.275Z,101290.04
2023-04-09T18:42:20.201Z,101290.23
2023-04-09T18:44:50.394Z,101289.75
2023-04-09T18:47:19.175Z,101288.02
2023-04-09T18:49:52.485Z,101290.67
2023-04-09T18:52:24.911Z,101290.31
2023-04-09T18:54:58.778Z,101290.12
2023-04-09T18:57:28.921Z,101287.27
2023-04-09T18:59:58.690Z,101292.02
2023-04-09T19:02:30.259Z,101287.59
2023-04-09T19:04:59.623Z,101286.49
2023-04-09T19:07:28.011Z,101286.52
2023-04-09T19:09:56.531Z,101285.09
2023-04-09T19:12:27.999Z,101282.94
2023-04-09T19:14:57.061Z,101283.24
2023-04-09T19:17:28.693Z,101276.18
2023-04-09T19:19:59.593Z,101279.36
2023-04-09T19:22:28.729Z,101276.21
2023-04-09T19:24:57.721Z,101276.23
2023-04-09T19:27:26.827Z,101276.93
2023-04-09T19:29:56.600Z,101280.12
2023-04-09T19:32:26.299Z,101286.09
2023-04-09T19:34:54.663Z,101285.38
2023-04-09T19:37:27.788Z,101284.34
2023-04-09T19:39:56.859Z,101286.30
2023-04-09T19:42:28.961Z,101286.64
2023-04-09T19:45:00.065Z,101285.21
2023-04-09T19:47:29.663Z,101288.91
2023-04-09T19:49:58.152Z,101284.69
2023-04-09T19:52:27.229Z,101285.05
2023-04-09T19:54:56.510Z,101285.75
2023-04-09T19:57:26.646Z,101285.70
2023-04-09T19:59:55.802Z,101282.84
2023-04-09T20:02:25.726Z,101280.38
2023-04-09T20:04:54.719Z,101278.76
2023-04-09T20:07:23.188Z,101279.10
2023-04-09T20:09:53.614Z,101278.02
2023-04-09T20:12:23.981Z,101278.38
2023-04-09T20:14:52.842Z,101273.41
2023-04-09T20:17:25.020Z,101276.49
2023-04-09T20:19:55.941Z,101275.77
2023-04-09T20:22:24.723Z,101270.58
2023-04-09T20:24:55.663Z,101270.52
2023-04-09T20:27:25.371Z,101276.98
2023-04-09T20:29:53.753Z,101275.15
2023-04-09T20:32:22.938Z,101275.47
2023-04-09T20:34:51.446Z,101273.86
2023-04-09T20:37:19.909Z,101270.30
2023-04-09T20:39:49.720Z,101268.09
2023-04-09T20:42:18.749Z,101272.11
2023-04-09T20:44:47.303Z,101269.27
2023-04-09T20:47:16.812Z,101265.02
2023-04-09T20:49:46.868Z,101262.70
2023-04-09T20:52:16.017Z,101259.94
2023-04-09T20:54:45.622Z,101256.42
2023-04-09T20:57:14.223Z,101252.59
2023-04-09T20:59:43.094Z,101249.63
2023-04-09T21:02:15.057Z,101253.33
2023-04-09T21:04:43.644Z,101253.11
2023-04-09T21:07:13.254Z,101245.15
2023-04-09T21:09:42.037Z,101241.83
2023-04-09T21:12:11.558Z,101243.05
2023-04-09T21:14:40.842Z,101240.97
2023-04-09T21:17:10.142Z,101245.09
2023-04-09T21:19:38.530Z,101250.05
2023-04-09T21:22:08.551Z,101252.66
2023-04-09T21:24:38.164Z,101260.94
2023-04-09T21:27:07.682Z,101262.55
2023-04-09T21:29:36.242Z,101264.70
2023-04-09T21:32:05.361Z,101261.21
2023-04-09T21:34:33.917Z,101261.42
2023-04-09T21:37:03.443Z,101268.34
2023-04-09T21:39:32.122Z,101273.14
2023-04-09T21:42:00.605Z,101269.09
2023-04-09T21:44:29.185Z,101267.86
2023-04-09T21:46:57.580Z,101273.25
2023-04-09T21:49:26.454Z,101274.27
2023-04-09T21:51:55.953Z,101273.41
2023-04-09T21:54:25.564Z,101269.41
2023-04-09T21:56:53.967Z,101271.89
2023-04-09T21:59:27.022Z,101270.12
2023-04-09T22:01:56.566Z,101267.48
2023-04-09T22:04:25.859Z,101262.40
2023-04-09T22:06:55.235Z,101264.16
2023-04-09T22:09:23.628Z,101262.05
2023-04-09T22:11:53.766Z,101268.00
2023-04-09T22:14:23.151Z,101265.88
2023-04-09T22:16:52.470Z,101268.49
2023-04-09T22:19:20.918Z,101266.75
2023-04-09T22:21:50.976Z,101264.96
2023-04-09T22:24:26.716Z,101262.29
2023-04-09T22:27:01.820Z,101258.77
2023-04-09T22:29:30.202Z,101256.98
2023-04-09T22:31:58.681Z,101260.82
2023-04-09T22:34:27.775Z,101261.02
2023-04-09T22:36:56.357Z,101261.89
2023-04-09T22:39:25.372Z,101262.86
2023-04-09T22:41:54.039Z,101262.27
2023-04-09T22:44:22.468Z,101263.67
2023-04-09T22:46:53.299Z,101260.20
2023-04-09T22:49:23.997Z,101259.35
2023-04-09T22:51:53.584Z,101260.36
2023-04-09T22:54:21.864Z,101259.14
2023-04-09T22:56:50.648Z,101259.15
2023-04-09T22:59:23.017Z,101253.89
2023-04-09T23:01:53.930Z,101257.58
2023-04-09T23:04:25.662Z,101255.93
2023-04-09T23:06:54.909Z,101258.91
2023-04-09T23:09:23.450Z,101257.70
2023-04-09T23:11:52.496Z,101255.45
2023-04-09T23:14:20.871Z,101259.67
2023-04-09T23:16:50.675Z,101258.41
2023-04-09T23:19:23.282Z,101255.40
2023-04-09T23:21:52.347Z,101251.88
2023-04-09T23:24:20.893Z,101254.73
2023-04-09T23:26:50.654Z,101252.04
2023-04-09T23:29:19.444Z,101249.87
2023-04-09T23:31:48.858Z,101250.73
2023-04-09T23:34:17.533Z,101253.54
2023-04-09T23:36:46.227Z,101252.30
2023-04-09T23:39:17.555Z,101244.88
2023-04-09T23:49:19.064Z,101237.82
2023-04-09T23:51:53.673Z,101237.74
2023-04-09T23:54:23.693Z,101239.27
2023-04-09T23:57:04.670Z,101234.82
2023-04-09T23:59:36.217Z,101235.73
